Dai 18 Bunei Maru — JM6179 — position and weather

sailwx.info

Track history (hours):
 
Tides and Currents Weather Stations Pressure Air Temp Water Temp Dewpoint Dewpoint Depression Visibility Wind Speed Wind Dir Waves Ship Positions

Dai 18 Bunei Maru

Last reported at 2018-Jul-18 02:02 UTC. Time now 2018-Jul-19 19:24 UTC.
Position N 35°25' E 139°47'.

Length 58 m.

Type: Ship. MMSI: 431600063.

Date/timePositionNaut miles runAvg speedWind from/ knotsBaromVisibWave heightAir tempDewpointWater temp
2018-Jul-18 02:02N 35°25' E 139°47'410.5
2018-Jul-18 01:40N 35°22' E 139°45'210.4
2018-Jul-18 01:28N 35°20' E 139°44'6 9.9
2018-Jul-18 00:52N 35°14' E 139°47'410.8
2018-Jul-18 00:28N 35°10' E 139°46'510.6
2018-Jul-18 00:00N 35°06' E 139°43'611.5
2018-Jul-17 23:27N 35°02' E 139°37'  
2018-Jul-14 21:48N 34°20' E 134°23'  
2018-Jul-08 21:06N 34°04' E 134°49'910.1
2018-Jul-08 20:14N 33°58' E 134°56'  
Track history (hours):
 
Tides and Currents Weather Stations Pressure Air Temp Water Temp Dewpoint Dewpoint Depression Visibility Wind Speed Wind Dir Waves Ship Positions

Dai 18 Bunei Maru

Last reported at 2018-Jul-18 02:02 UTC. Time now 2018-Jul-19 19:24 UTC.
Position N 35°25' E 139°47'.

Length 58 m.

Type: Ship. MMSI: 431600063.

Date/timePositionNaut miles runAvg speedWind from/ knotsBaromVisibWave heightAir tempDewpointWater temp
2018-Jul-18 02:02N 35°25' E 139°47'410.5
2018-Jul-18 01:40N 35°22' E 139°45'210.4
2018-Jul-18 01:28N 35°20' E 139°44'6 9.9
2018-Jul-18 00:52N 35°14' E 139°47'410.8
2018-Jul-18 00:28N 35°10' E 139°46'510.6
2018-Jul-18 00:00N 35°06' E 139°43'611.5
2018-Jul-17 23:27N 35°02' E 139°37'  
2018-Jul-14 21:48N 34°20' E 134°23'  
2018-Jul-08 21:06N 34°04' E 134°49'910.1
2018-Jul-08 20:14N 33°58' E 134°56'  

Dump ship's entire track history